createdAt,value
2023-01-11T00:01:10.060Z,118.78
2023-01-11T00:03:38.292Z,128.35
2023-01-11T00:06:06.732Z,127.93
2023-01-11T00:08:35.050Z,132.75
2023-01-11T00:11:03.739Z,126.35
2023-01-11T00:13:32.360Z,122.68
2023-01-11T00:16:07.411Z,138.82
2023-01-11T00:18:36.556Z,134.48
2023-01-11T00:21:06.436Z,114.32
2023-01-11T00:23:35.825Z,103.88
2023-01-11T00:26:05.731Z,118.22
2023-01-11T00:28:34.394Z,119.78
2023-01-11T00:31:03.115Z,94.50
2023-01-11T00:33:31.430Z,101.20
2023-01-11T00:35:59.739Z,93.82
2023-01-11T00:38:28.107Z,78.53
2023-01-11T00:40:56.228Z,125.78
2023-01-11T00:43:24.443Z,161.57
2023-01-11T00:45:52.690Z,143.85
2023-01-11T00:48:20.986Z,134.48
2023-01-11T00:50:49.158Z,254.20
2023-01-11T00:53:18.758Z,191.43
2023-01-11T00:55:47.096Z,299.77
2023-01-11T00:58:15.165Z,280.05
2023-01-11T01:00:43.589Z,210.80
2023-01-11T01:03:11.808Z,159.15
2023-01-11T01:05:40.136Z,126.57
2023-01-11T01:08:08.588Z,141.98
2023-01-11T01:10:36.791Z,140.18
2023-01-11T01:13:04.889Z,126.60
2023-01-11T01:15:34.135Z,134.50
2023-01-11T01:18:02.401Z,128.75
2023-01-11T01:20:30.555Z,116.18
2023-01-11T01:22:58.944Z,112.43
2023-01-11T01:25:27.103Z,112.05
2023-01-11T01:27:55.422Z,110.82
2023-01-11T01:30:23.650Z,86.60
2023-01-11T01:32:51.941Z,109.95
2023-01-11T01:35:20.002Z,86.15
2023-01-11T01:37:48.507Z,91.03
2023-01-11T01:40:16.793Z,108.25
2023-01-11T01:42:44.997Z,103.55
2023-01-11T01:45:27.591Z,107.93
2023-01-11T01:48:03.319Z,104.18
2023-01-11T01:50:47.429Z,124.70
2023-01-11T01:53:21.458Z,111.03
2023-01-11T01:56:02.642Z,135.18
2023-01-11T01:58:44.334Z,124.55
2023-01-11T02:01:15.516Z,109.50
2023-01-11T02:03:44.008Z,110.67
2023-01-11T02:06:12.371Z,93.93
2023-01-11T02:08:44.145Z,98.68
2023-01-11T02:11:15.459Z,95.25
2023-01-11T02:13:44.017Z,82.93
2023-01-11T02:16:12.280Z,109.53
2023-01-11T02:18:40.512Z,89.00
2023-01-11T02:21:38.370Z,96.40
2023-01-11T02:24:51.037Z,127.78
2023-01-11T02:27:25.400Z,122.85
2023-01-11T02:30:05.731Z,120.10
2023-01-11T02:32:59.684Z,106.40
2023-01-11T02:35:59.091Z,92.28
2023-01-11T02:38:36.879Z,108.85
2023-01-11T02:41:22.424Z,97.43
2023-01-11T02:44:11.621Z,99.55
2023-01-11T02:46:51.973Z,123.32
2023-01-11T02:49:42.155Z,130.82
2023-01-11T02:52:18.277Z,108.15
2023-01-11T02:54:51.835Z,101.25
2023-01-11T02:57:20.923Z,101.75
2023-01-11T02:59:51.265Z,92.30
2023-01-11T03:02:19.513Z,87.35
2023-01-11T03:04:47.766Z,91.82
2023-01-11T03:07:26.186Z,109.22
2023-01-11T03:10:24.486Z,79.22
2023-01-11T03:13:17.736Z,90.57
2023-01-11T03:16:23.959Z,78.55
2023-01-11T03:19:08.088Z,68.88
2023-01-11T03:22:11.840Z,82.15
2023-01-11T03:24:43.149Z,61.08
2023-01-11T03:27:18.489Z,60.70
2023-01-11T03:29:46.780Z,64.80
2023-01-11T03:32:52.578Z,103.35
2023-01-11T03:35:32.961Z,63.78
2023-01-11T03:38:32.637Z,59.40
2023-01-11T03:41:12.854Z,79.40
2023-01-11T03:43:42.967Z,50.50
2023-01-11T03:46:17.753Z,46.97
2023-01-11T03:49:06.931Z,53.45
2023-01-11T03:51:41.185Z,40.42
2023-01-11T03:54:13.772Z,63.58
2023-01-11T03:56:59.878Z,62.90
2023-01-11T03:59:29.086Z,46.95
2023-01-11T04:01:58.800Z,46.10
2023-01-11T04:04:27.302Z,43.75
2023-01-11T04:06:55.692Z,29.67
2023-01-11T04:09:24.046Z,47.60
2023-01-11T04:11:52.104Z,41.65
2023-01-11T04:14:20.385Z,39.92
2023-01-11T04:16:48.482Z,36.83
2023-01-11T04:19:16.802Z,51.05
2023-01-11T04:21:44.948Z,44.80
2023-01-11T04:24:12.997Z,47.67
2023-01-11T04:26:41.458Z,43.03
2023-01-11T04:29:10.679Z,43.90
2023-01-11T04:31:39.008Z,32.70
2023-01-11T04:34:07.271Z,47.78
2023-01-11T04:36:35.427Z,48.60
2023-01-11T04:39:03.632Z,37.88
2023-01-11T04:41:31.798Z,49.30
2023-01-11T04:44:00.205Z,41.95
2023-01-11T04:46:28.367Z,56.17
2023-01-11T04:48:56.596Z,53.28
2023-01-11T04:51:24.709Z,63.15
2023-01-11T04:53:53.961Z,52.78
2023-01-11T04:56:22.215Z,46.42
2023-01-11T04:58:50.465Z,42.47
2023-01-11T05:01:20.189Z,41.95
2023-01-11T05:03:48.631Z,48.17
2023-01-11T05:06:17.365Z,46.67
2023-01-11T05:08:49.310Z,42.25
2023-01-11T05:11:18.877Z,56.65
2023-01-11T05:13:47.354Z,47.78
2023-01-11T05:16:19.785Z,58.58
2023-01-11T05:18:53.870Z,54.45
2023-01-11T05:21:27.320Z,54.80
2023-01-11T05:23:55.885Z,46.33
2023-01-11T05:26:26.848Z,57.10
2023-01-11T05:28:57.109Z,62.88
2023-01-11T05:31:25.725Z,61.22
2023-01-11T05:33:56.324Z,58.22
2023-01-11T05:36:25.552Z,49.58
2023-01-11T05:38:55.066Z,45.97
2023-01-11T05:41:26.340Z,35.35
2023-01-11T05:43:55.430Z,45.88
2023-01-11T05:46:24.149Z,44.53
2023-01-11T05:48:53.200Z,50.92
2023-01-11T05:51:21.496Z,35.55
2023-01-11T05:53:49.667Z,51.08
2023-01-11T05:56:17.978Z,50.80
2023-01-11T05:58:49.768Z,44.80
2023-01-11T06:01:20.004Z,45.60
2023-01-11T06:03:48.533Z,36.17
2023-01-11T06:06:17.747Z,42.65
2023-01-11T06:08:46.410Z,35.72
2023-01-11T06:11:15.124Z,49.42
2023-01-11T06:13:43.644Z,35.17
2023-01-11T06:16:15.407Z,44.33
2023-01-11T06:18:46.565Z,40.65
2023-01-11T06:21:15.716Z,40.47
2023-01-11T06:23:46.176Z,55.60
2023-01-11T06:26:20.015Z,40.38
2023-01-11T06:28:48.409Z,46.05
2023-01-11T06:31:17.772Z,34.95
2023-01-11T06:33:46.769Z,35.58
2023-01-11T06:36:16.212Z,48.55
2023-01-11T06:38:44.795Z,55.05
2023-01-11T06:41:13.725Z,32.47
2023-01-11T06:43:42.493Z,40.80
2023-01-11T06:46:16.032Z,35.97
2023-01-11T06:48:45.148Z,46.90
2023-01-11T06:51:14.618Z,53.63
2023-01-11T06:53:43.986Z,41.72
2023-01-11T06:56:16.298Z,39.28
2023-01-11T06:58:47.057Z,44.15
2023-01-11T07:01:16.675Z,50.72
2023-01-11T07:03:45.286Z,50.58
2023-01-11T07:06:13.915Z,46.55
2023-01-11T07:08:42.020Z,44.75
2023-01-11T07:11:10.635Z,49.58
2023-01-11T07:13:39.035Z,49.65
2023-01-11T07:16:07.538Z,39.10
2023-01-11T07:18:35.741Z,50.42
2023-01-11T07:21:03.986Z,47.75
2023-01-11T07:23:32.317Z,58.40
2023-01-11T07:26:03.816Z,59.70
2023-01-11T07:28:32.359Z,65.60
2023-01-11T07:31:00.629Z,47.35
2023-01-11T07:33:28.998Z,42.85
2023-01-11T07:35:57.312Z,56.50
2023-01-11T07:38:25.548Z,42.15
2023-01-11T07:40:53.748Z,47.75
2023-01-11T07:43:22.282Z,45.97
2023-01-11T07:45:52.788Z,46.58
2023-01-11T07:48:25.719Z,36.40
2023-01-11T07:50:54.746Z,33.25
2023-01-11T07:53:24.008Z,62.70
2023-01-11T07:55:52.211Z,49.92
2023-01-11T07:58:20.305Z,60.22
2023-01-11T08:00:48.699Z,51.40
2023-01-11T08:03:17.077Z,50.45
2023-01-11T08:05:54.487Z,49.47
2023-01-11T08:08:22.906Z,41.00
2023-01-11T08:10:51.165Z,38.70
2023-01-11T08:13:19.547Z,52.80
2023-01-11T08:15:47.839Z,47.80
2023-01-11T08:18:16.093Z,53.10
2023-01-11T08:20:44.285Z,58.72
2023-01-11T08:23:12.680Z,53.38
2023-01-11T08:25:41.048Z,67.10
2023-01-11T08:28:09.350Z,55.88
2023-01-11T08:30:38.276Z,39.05
2023-01-11T08:33:07.002Z,45.03
2023-01-11T08:35:39.491Z,48.05
2023-01-11T08:38:08.441Z,29.10
2023-01-11T08:40:37.416Z,33.75
2023-01-11T08:43:05.580Z,32.60
2023-01-11T08:45:34.115Z,47.65
2023-01-11T08:48:02.465Z,62.20
2023-01-11T08:50:31.515Z,43.35
2023-01-11T08:52:59.867Z,42.97
2023-01-11T08:55:28.122Z,47.50
2023-01-11T08:57:58.035Z,51.13
2023-01-11T09:00:26.377Z,55.08
2023-01-11T09:02:54.750Z,37.70
2023-01-11T09:05:23.182Z,43.70
2023-01-11T09:07:51.707Z,32.47
2023-01-11T09:10:20.124Z,45.33
2023-01-11T09:12:48.516Z,42.13
2023-01-11T09:15:16.887Z,33.80
2023-01-11T09:17:47.141Z,38.63
2023-01-11T09:20:15.796Z,31.67
2023-01-11T09:22:48.555Z,43.15
2023-01-11T09:25:18.023Z,40.47
2023-01-11T09:27:51.533Z,41.28
2023-01-11T09:30:22.247Z,46.00
2023-01-11T09:32:52.192Z,31.95
2023-01-11T09:35:20.562Z,54.38
2023-01-11T09:37:50.329Z,44.70
2023-01-11T09:40:45.079Z,46.35
2023-01-11T09:43:14.841Z,68.53
2023-01-11T09:45:44.026Z,43.20
2023-01-11T09:48:44.137Z,32.97
2023-01-11T09:51:17.450Z,67.85
2023-01-11T09:53:48.589Z,55.45
2023-01-11T09:56:23.282Z,35.95
2023-01-11T09:59:17.770Z,44.42
2023-01-11T10:01:56.043Z,54.28
2023-01-11T10:04:43.504Z,46.47
2023-01-11T10:07:47.102Z,53.47
2023-01-11T10:18:37.389Z,51.17
2023-01-11T10:19:34.865Z,36.92
2023-01-11T10:22:15.148Z,39.50
2023-01-11T10:24:49.226Z,85.53
2023-01-11T10:27:30.717Z,51.72
2023-01-11T10:30:03.161Z,52.22
2023-01-11T10:32:52.188Z,61.97
2023-01-11T10:36:02.751Z,90.57
2023-01-11T10:38:45.135Z,66.55
2023-01-11T10:41:34.917Z,38.72
2023-01-11T10:44:11.800Z,44.17
2023-01-11T10:46:59.421Z,56.15
2023-01-11T10:49:36.711Z,68.65
2023-01-11T10:52:25.288Z,30.08
2023-01-11T10:54:53.683Z,43.00
2023-01-11T10:57:28.058Z,37.05
2023-01-11T11:00:15.014Z,81.70
2023-01-11T11:03:10.955Z,77.22
2023-01-11T11:06:01.651Z,50.45
2023-01-11T11:08:54.255Z,104.63
2023-01-11T11:11:30.774Z,41.47
2023-01-11T11:14:15.910Z,44.33
2023-01-11T11:16:56.477Z,39.88
2023-01-11T11:19:31.160Z,41.40
2023-01-11T11:22:00.436Z,40.03
2023-01-11T11:25:11.586Z,46.63
2023-01-11T11:27:53.312Z,50.88
2023-01-11T11:30:32.370Z,50.72
2023-01-11T11:33:03.852Z,29.33
2023-01-11T11:35:34.737Z,35.90
2023-01-11T11:38:03.778Z,39.17
2023-01-11T11:40:38.063Z,51.25
2023-01-11T11:43:24.988Z,40.22
2023-01-11T11:46:01.500Z,39.95
2023-01-11T11:48:35.252Z,47.25
2023-01-11T11:51:06.889Z,72.63
2023-01-11T11:56:37.493Z,46.65
2023-01-11T11:59:15.195Z,40.03
2023-01-11T12:01:46.341Z,56.35
2023-01-11T12:04:23.868Z,53.58
2023-01-11T12:07:13.118Z,41.20
2023-01-11T12:10:06.197Z,41.90
2023-01-11T12:12:34.548Z,41.20
2023-01-11T12:15:17.880Z,38.05
2023-01-11T12:17:46.582Z,44.35
2023-01-11T12:20:24.065Z,58.95
2023-01-11T12:23:27.019Z,42.58
2023-01-11T12:26:27.905Z,39.38
2023-01-11T12:28:56.191Z,32.35
2023-01-11T12:31:30.506Z,33.88
2023-01-11T12:34:26.569Z,33.13
2023-01-11T12:37:19.431Z,55.80
2023-01-11T12:39:54.930Z,42.17
2023-01-11T12:42:35.586Z,43.38
2023-01-11T12:45:11.336Z,47.08
2023-01-11T12:48:28.938Z,47.38
2023-01-11T12:51:49.614Z,41.78
2023-01-11T12:54:59.098Z,40.55
2023-01-11T12:57:36.239Z,36.45
2023-01-11T13:00:16.845Z,77.35
2023-01-11T13:03:19.503Z,38.85
2023-01-11T13:06:06.255Z,35.38
2023-01-11T13:08:45.827Z,60.70
2023-01-11T13:11:20.029Z,62.47
2023-01-11T13:14:16.825Z,47.80
2023-01-11T13:16:53.723Z,41.58
2023-01-11T13:19:33.434Z,60.08
2023-01-11T13:22:02.455Z,39.10
2023-01-11T13:24:33.319Z,37.38
2023-01-11T13:27:17.147Z,36.10
2023-01-11T13:29:49.023Z,27.25
2023-01-11T13:32:28.057Z,30.10
2023-01-11T13:35:19.840Z,36.88
2023-01-11T13:37:59.341Z,59.17
2023-01-11T13:40:33.435Z,51.83
2023-01-11T13:43:14.060Z,38.35
2023-01-11T13:45:59.951Z,36.63
2023-01-11T13:48:46.749Z,49.65
2023-01-11T13:51:48.950Z,41.60
2023-01-11T13:57:14.717Z,36.83
2023-01-11T13:59:50.612Z,30.45
2023-01-11T14:02:37.291Z,43.15
2023-01-11T14:05:23.657Z,44.13
2023-01-11T14:08:16.493Z,54.30
2023-01-11T14:11:04.863Z,29.02
2023-01-11T14:13:33.196Z,44.33
2023-01-11T14:16:12.665Z,63.60
2023-01-11T14:19:15.258Z,36.15
2023-01-11T14:22:01.448Z,38.35
2023-01-11T14:24:33.617Z,40.40
2023-01-11T14:27:07.854Z,44.55
2023-01-11T14:29:51.260Z,41.15
2023-01-11T14:32:42.578Z,46.30
2023-01-11T14:35:35.082Z,44.25
2023-01-11T14:38:12.477Z,35.88
2023-01-11T14:40:49.689Z,36.00
2023-01-11T14:44:00.120Z,36.25
2023-01-11T14:46:47.162Z,44.50
2023-01-11T14:49:40.142Z,48.85
2023-01-11T14:52:39.691Z,38.15
2023-01-11T14:55:27.833Z,50.15
2023-01-11T14:57:56.143Z,35.42
2023-01-11T15:00:24.243Z,44.17
2023-01-11T15:03:15.189Z,32.90
2023-01-11T15:05:50.356Z,45.50
2023-01-11T15:08:26.233Z,45.67
2023-01-11T15:11:04.224Z,57.50
2023-01-11T15:13:51.799Z,40.85
2023-01-11T15:16:31.509Z,32.50
2023-01-11T15:19:05.295Z,35.67
2023-01-11T15:21:40.958Z,36.50
2023-01-11T15:24:43.157Z,38.80
2023-01-11T15:27:39.027Z,28.60
2023-01-11T15:30:28.239Z,41.85
2023-01-11T15:33:18.157Z,41.97
2023-01-11T15:36:03.234Z,30.58
2023-01-11T15:38:43.880Z,51.60
2023-01-11T15:41:35.763Z,52.70
2023-01-11T15:44:22.600Z,40.05
2023-01-11T15:47:09.269Z,34.85
2023-01-11T15:50:27.781Z,42.00
2023-01-11T15:53:38.666Z,37.20
2023-01-11T15:56:15.705Z,39.53
2023-01-11T15:58:53.161Z,34.80
2023-01-11T16:01:28.740Z,31.60
2023-01-11T16:04:03.299Z,42.70
2023-01-11T16:06:40.503Z,44.17
2023-01-11T16:09:45.597Z,42.83
2023-01-11T16:12:19.882Z,44.58
2023-01-11T16:15:09.675Z,37.83
2023-01-11T16:17:42.164Z,36.15
2023-01-11T16:20:20.602Z,56.45
2023-01-11T16:23:04.194Z,46.55
2023-01-11T16:25:38.702Z,59.20
2023-01-11T16:28:07.960Z,49.05
2023-01-11T16:30:36.185Z,45.88
2023-01-11T16:33:25.888Z,52.65
2023-01-11T16:36:12.196Z,44.40
2023-01-11T16:38:57.577Z,54.60
2023-01-11T16:41:29.976Z,46.92
2023-01-11T16:44:05.672Z,50.30
2023-01-11T16:47:10.427Z,46.38
2023-01-11T16:49:40.437Z,38.03
2023-01-11T16:52:47.690Z,50.42
2023-01-11T16:55:40.135Z,44.35
2023-01-11T16:58:22.743Z,40.92
2023-01-11T17:01:11.866Z,36.83
2023-01-11T17:03:53.788Z,51.05
2023-01-11T17:08:55.889Z,47.13
2023-01-11T17:11:36.318Z,52.85
2023-01-11T17:14:13.714Z,50.97
2023-01-11T17:16:51.264Z,49.75
2023-01-11T17:19:24.000Z,43.13
2023-01-11T17:22:03.301Z,41.10
2023-01-11T17:24:34.917Z,51.28
2023-01-11T17:27:03.967Z,56.33
2023-01-11T17:29:39.558Z,37.33
2023-01-11T17:32:19.338Z,66.60
2023-01-11T17:34:49.670Z,33.47
2023-01-11T17:37:19.627Z,57.83
2023-01-11T17:39:50.844Z,59.90
2023-01-11T17:42:19.567Z,26.05
2023-01-11T17:44:49.603Z,34.60
2023-01-11T17:47:18.070Z,44.20
2023-01-11T17:49:51.160Z,52.78
2023-01-11T17:52:25.038Z,35.65
2023-01-11T17:55:21.141Z,46.70
2023-01-11T17:58:19.426Z,54.13
2023-01-11T18:01:20.538Z,48.67
2023-01-11T18:03:57.721Z,40.35
2023-01-11T18:06:41.107Z,42.50
2023-01-11T18:09:21.395Z,50.63
2023-01-11T18:11:51.650Z,55.75
2023-01-11T18:14:24.482Z,49.63
2023-01-11T18:17:24.918Z,44.50
2023-01-11T18:19:53.383Z,38.10
2023-01-11T18:22:35.791Z,34.30
2023-01-11T18:25:36.489Z,61.70
2023-01-11T18:28:19.668Z,64.82
2023-01-11T18:30:50.567Z,59.65
2023-01-11T18:33:21.336Z,82.68
2023-01-11T18:35:52.695Z,48.47
2023-01-11T18:38:23.514Z,71.78
2023-01-11T18:40:53.997Z,49.80
2023-01-11T18:43:31.355Z,49.42
2023-01-11T18:45:59.718Z,55.35
2023-01-11T18:48:28.011Z,62.90
2023-01-11T18:50:56.304Z,72.68
2023-01-11T18:53:24.754Z,73.95
2023-01-11T18:55:53.158Z,53.15
2023-01-11T18:58:21.442Z,47.83
2023-01-11T19:00:49.687Z,55.13
2023-01-11T19:03:17.942Z,46.67
2023-01-11T19:05:46.055Z,59.17
2023-01-11T19:08:14.424Z,50.92
2023-01-11T19:10:42.858Z,42.83
2023-01-11T19:13:11.041Z,44.05
2023-01-11T19:15:39.439Z,44.17
2023-01-11T19:18:07.897Z,52.67
2023-01-11T19:20:36.804Z,64.78
2023-01-11T19:23:05.127Z,82.18
2023-01-11T19:25:33.483Z,63.38
2023-01-11T19:28:04.013Z,57.45
2023-01-11T19:30:32.797Z,57.03
2023-01-11T19:33:00.952Z,41.10
2023-01-11T19:35:29.368Z,39.47
2023-01-11T19:37:57.623Z,54.05
2023-01-11T19:40:25.717Z,59.05
2023-01-11T19:42:54.142Z,101.95
2023-01-11T19:45:22.287Z,79.22
2023-01-11T19:47:50.755Z,74.43
2023-01-11T19:50:19.194Z,100.60
2023-01-11T19:52:47.470Z,115.32
2023-01-11T19:55:15.844Z,99.97
2023-01-11T19:57:44.050Z,108.07
2023-01-11T20:00:14.348Z,52.00
2023-01-11T20:02:42.764Z,63.97
2023-01-11T20:05:11.248Z,64.65
2023-01-11T20:07:39.707Z,56.38
2023-01-11T20:10:08.288Z,50.20
2023-01-11T20:12:36.443Z,43.70
2023-01-11T20:15:04.997Z,54.17
2023-01-11T20:17:33.110Z,95.13
2023-01-11T20:20:01.517Z,63.30
2023-01-11T20:22:29.606Z,80.70
2023-01-11T20:24:57.929Z,86.70
2023-01-11T20:27:26.710Z,60.72
2023-01-11T20:29:54.914Z,53.63
2023-01-11T20:32:40.223Z,71.68
2023-01-11T20:35:10.805Z,58.85
2023-01-11T20:37:38.981Z,62.10
2023-01-11T20:40:07.895Z,59.25
2023-01-11T20:42:36.110Z,64.63
2023-01-11T20:45:04.399Z,66.70
2023-01-11T20:47:32.880Z,42.40
2023-01-11T20:50:01.684Z,54.47
2023-01-11T20:52:29.955Z,73.50
2023-01-11T20:54:58.413Z,94.32
2023-01-11T20:57:27.288Z,97.07
2023-01-11T20:59:55.991Z,96.97
2023-01-11T21:02:24.245Z,76.13
2023-01-11T21:04:52.666Z,80.63
2023-01-11T21:07:20.954Z,71.32
2023-01-11T21:09:51.443Z,59.05
2023-01-11T21:12:19.740Z,73.57
2023-01-11T21:14:47.920Z,60.72
2023-01-11T21:17:16.544Z,91.88
2023-01-11T21:19:44.827Z,95.00
2023-01-11T21:22:13.326Z,75.85
2023-01-11T21:24:41.663Z,62.83
2023-01-11T21:27:10.184Z,58.40
2023-01-11T21:29:38.510Z,74.72
2023-01-11T21:32:06.911Z,62.88
2023-01-11T21:34:35.277Z,64.82
2023-01-11T21:37:03.640Z,64.32
2023-01-11T21:39:32.014Z,72.88
2023-01-11T21:42:00.413Z,68.55
2023-01-11T21:44:35.153Z,100.38
2023-01-11T21:47:05.767Z,80.57
2023-01-11T21:49:34.539Z,69.10
2023-01-11T21:52:02.848Z,49.47
2023-01-11T21:54:31.349Z,47.38
2023-01-11T21:56:59.638Z,43.63
2023-01-11T21:59:28.027Z,56.65
2023-01-11T22:01:56.624Z,67.68
2023-01-11T22:04:25.190Z,62.58
2023-01-11T22:06:53.690Z,60.05
2023-01-11T22:09:22.632Z,57.45
2023-01-11T22:11:50.824Z,52.95
2023-01-11T22:14:19.136Z,35.65
2023-01-11T22:16:47.511Z,43.35
2023-01-11T22:19:15.975Z,40.35
2023-01-11T22:21:44.505Z,50.78
2023-01-11T22:24:12.951Z,59.97
2023-01-11T22:26:41.738Z,54.38
2023-01-11T22:29:10.676Z,47.67
2023-01-11T22:31:53.124Z,39.67
2023-01-11T22:34:22.126Z,52.88
2023-01-11T22:36:50.411Z,38.08
2023-01-11T22:39:18.688Z,57.17
2023-01-11T22:41:48.157Z,38.55
2023-01-11T22:44:18.294Z,51.60
2023-01-11T22:46:46.836Z,50.30
2023-01-11T22:49:15.467Z,47.72
2023-01-11T22:51:44.557Z,53.03
2023-01-11T22:54:13.254Z,39.70
2023-01-11T22:56:41.719Z,59.90
2023-01-11T22:59:10.967Z,45.38
2023-01-11T23:01:41.454Z,44.60
2023-01-11T23:04:13.125Z,40.65
2023-01-11T23:06:42.493Z,46.70
2023-01-11T23:09:16.013Z,53.13
2023-01-11T23:11:45.867Z,61.00
2023-01-11T23:14:17.407Z,68.53
2023-01-11T23:16:47.652Z,50.78
2023-01-11T23:19:18.305Z,64.45
2023-01-11T23:21:47.883Z,56.38
2023-01-11T23:24:17.516Z,57.30
2023-01-11T23:26:46.417Z,52.83
2023-01-11T23:29:14.689Z,37.30
2023-01-11T23:31:43.416Z,44.72
2023-01-11T23:34:12.505Z,47.65
2023-01-11T23:36:42.776Z,45.13
2023-01-11T23:39:16.837Z,36.47
2023-01-11T23:41:45.364Z,50.00
2023-01-11T23:44:15.649Z,42.08
2023-01-11T23:46:45.131Z,37.45
2023-01-11T23:49:14.090Z,34.70
2023-01-11T23:51:42.846Z,57.25
2023-01-11T23:54:11.666Z,64.97
2023-01-11T23:56:39.969Z,55.92
2023-01-11T23:59:09.019Z,45.95
